Dereham, United Kingdom
Current Conditions -  °F | °C
As of 1:20 AM on Sunday 26 Oct 2014 (Local Time) from EGSH Reporting Station
Clear Clear  
Wind Chill: 52°   Ceiling: Unl
Heat Index: 52°   Visibility: 6mi
Dew Point: 48°   Wind: 10mph
Humidity: 88%   Direction: 200°SSW
Pressure: 30.09"   Gusts: NA
Location:  52.64°N, 0.97°E
Report Text: EGSH 260020Z AUTO 20009KT 160V240 9999 NCD 11/09 Q1019
Loading
Personal Weather Stations






























Interactive Weather Map New forecast layout! Learn more

10-Day Weather Forecast

Advertisements
Track Severe Weather on mobile